Time;durP1;ratioP1;P1;durP2;ratioP2;P2;SDS_P1;SDS_P2;PMS_P1;PMS_P2;Temp;Humidity;BMP_temperature;BMP_pressure;BME280_temperature;BME280_humidity;BME280_pressure;Samples;Min_cycle;Max_cycle;Signal;HPM_P1;HPM_P2
2022/08/24 00:01:17;;;;;;;1.20;1.10;;;27.70;41.60;;;-147.20;100.00;58430.41;5114516;28;20145;-9
2022/08/24 00:03:44;;;;;;;1.40;1.10;;;27.60;41.60;;;-147.20;100.00;58430.41;5114530;28;20092;-8
2022/08/24 00:06:18;;;;;;;1.67;1.30;;;27.70;41.70;;;-147.20;100.00;58430.41;5114640;28;20039;-8
2022/08/24 00:08:46;;;;;;;1.42;1.15;;;27.60;41.60;;;-147.20;100.00;58430.41;5114921;28;20443;-9
2022/08/24 00:11:11;;;;;;;1.30;1.20;;;27.70;41.70;;;-147.20;100.00;58430.41;5114385;28;20126;-8
2022/08/24 00:13:37;;;;;;;1.40;1.17;;;27.70;41.70;;;-147.20;100.00;58430.41;5114334;28;20542;-8
2022/08/24 00:16:08;;;;;;;1.60;1.08;;;27.60;41.60;;;-147.20;100.00;58430.41;5114385;28;20523;-8
2022/08/24 00:18:35;;;;;;;1.25;1.15;;;27.60;41.70;;;-147.20;100.00;58430.41;5114254;28;20040;-8
2022/08/24 00:21:02;;;;;;;1.23;1.13;;;27.60;41.70;;;-147.20;100.00;58430.41;5113983;28;20056;-8
2022/08/24 00:23:28;;;;;;;1.52;1.33;;;27.60;41.70;;;-147.20;100.00;58430.41;5113831;28;20500;-8
2022/08/24 00:25:54;;;;;;;1.88;1.23;;;27.60;41.70;;;-147.20;100.00;58430.41;5114420;28;20047;-8
2022/08/24 00:28:20;;;;;;;1.60;1.20;;;27.70;41.70;;;-147.20;100.00;58430.41;5113194;28;20382;-8
2022/08/24 00:30:46;;;;;;;1.88;1.10;;;27.60;41.70;;;-147.20;100.00;58430.41;5114065;28;20113;-8
2022/08/24 00:33:12;;;;;;;1.23;1.13;;;27.70;41.80;;;-147.20;100.00;58430.41;5113964;28;20044;-8
2022/08/24 00:35:38;;;;;;;1.35;1.25;;;27.60;41.70;;;-147.20;100.00;58430.41;5114198;28;20396;-8
2022/08/24 00:38:04;;;;;;;1.25;1.00;;;27.60;41.70;;;-147.20;100.00;58430.41;5114405;28;20427;-8
2022/08/24 00:40:35;;;;;;;1.20;1.10;;;27.60;41.80;;;-147.20;100.00;58430.41;5095405;28;20051;-8
2022/08/24 00:43:05;;;;;;;2.35;1.23;;;27.60;41.80;;;-147.20;100.00;58430.41;5114241;28;20504;-8
2022/08/24 00:45:39;;;;;;;1.35;1.13;;;27.60;41.80;;;-147.20;100.00;58430.41;5114147;28;20107;-8
2022/08/24 00:48:15;;;;;;;1.13;1.00;;;27.60;41.80;;;-147.20;100.00;58430.41;5078528;28;20052;-8
2022/08/24 00:50:56;;;;;;;1.17;1.08;;;27.60;41.80;;;-147.20;100.00;58430.41;5077353;28;20047;-8
2022/08/24 00:53:30;;;;;;;;;;;27.60;41.80;;;-147.20;100.00;58430.41;5078974;28;20082;-8
2022/08/24 00:56:02;;;;;;;2.17;1.25;;;27.60;41.80;;;-147.20;100.00;58430.41;5113567;28;20018;-8
2022/08/24 00:58:36;;;;;;;1.30;1.00;;;27.60;41.80;;;-147.20;100.00;58430.41;5113563;28;20051;-9
2022/08/24 01:01:05;;;;;;;0.90;0.82;;;27.60;41.90;;;-147.20;100.00;58430.41;5095350;28;20496;-8
2022/08/24 01:03:32;;;;;;;2.20;1.30;;;27.60;41.90;;;-147.20;100.00;58430.41;5061585;28;20051;-8
2022/08/24 01:05:59;;;;;;;1.15;1.05;;;27.60;42.40;;;-147.20;100.00;58430.41;5095235;28;20102;-8
2022/08/24 01:08:25;;;;;;;1.42;1.13;;;27.60;41.90;;;-147.20;100.00;58430.41;5093837;28;20090;-8
2022/08/24 01:10:58;;;;;;;1.15;1.05;;;27.60;42.50;;;-147.20;100.00;58430.41;5095244;28;20075;-8
2022/08/24 01:13:24;;;;;;;1.48;1.27;;;27.60;41.90;;;-147.20;100.00;58430.41;5113515;28;20498;-8
2022/08/24 01:15:54;;;;;;;2.47;1.20;;;27.50;41.90;;;-147.20;100.00;58430.41;5093494;28;20044;-8
2022/08/24 01:21:32;;;;;;;1.00;1.00;;;27.60;41.90;;;-147.20;100.00;58430.41;5095114;28;20047;-8
2022/08/24 01:24:03;;;;;;;1.27;1.17;;;27.60;42.00;;;-147.20;100.00;58430.41;5111643;28;20051;-8
2022/08/24 01:26:41;;;;;;;1.33;1.20;;;27.60;42.00;;;-147.20;100.00;58430.41;5113286;28;20047;-8
2022/08/24 01:29:25;;;;;;;1.65;1.25;;;27.60;42.00;;;-147.20;100.00;58430.41;5094847;28;20051;-8
2022/08/24 01:31:53;;;;;;;1.20;1.10;;;27.60;42.00;;;-147.20;100.00;58430.41;5093219;28;20036;-8
2022/08/24 01:34:20;;;;;;;1.27;1.17;;;27.60;42.10;;;-147.20;100.00;58430.41;5113316;28;20043;-8
2022/08/24 01:36:54;;;;;;;1.33;1.20;;;27.60;42.10;;;-147.20;100.00;58430.41;5094745;28;20048;-8
2022/08/24 01:39:39;;;;;;;1.30;1.08;;;27.60;42.10;;;-147.20;100.00;58430.41;5095164;28;20485;-8
2022/08/24 01:42:06;;;;;;;1.38;1.20;;;27.60;42.10;;;-147.20;100.00;58430.41;5077679;28;20401;-8
2022/08/24 01:44:39;;;;;;;1.20;1.10;;;27.60;42.10;;;-147.20;100.00;58430.41;5111594;28;20108;-8
2022/08/24 01:47:10;;;;;;;1.20;1.10;;;27.50;42.00;;;-147.20;100.00;58430.41;5094903;28;20051;-8
2022/08/24 01:49:42;;;;;;;1.33;1.20;;;27.50;42.10;;;-147.20;100.00;58430.41;5112901;28;20051;-8
2022/08/24 01:52:13;;;;;;;1.20;1.00;;;27.50;42.10;;;-147.20;100.00;58430.41;5094750;28;20048;-8
2022/08/24 01:54:40;;;;;;;1.20;1.10;;;27.50;42.10;;;-147.20;100.00;58430.41;5094557;28;20104;-8
2022/08/24 01:57:07;;;;;;;1.17;1.08;;;27.50;42.10;;;-147.20;100.00;58430.41;5077705;28;20039;-8
2022/08/24 01:59:32;;;;;;;2.05;1.33;;;27.50;42.10;;;-147.20;100.00;58430.41;5094325;28;20052;-8
2022/08/24 02:02:12;;;;;;;1.10;1.00;;;27.50;42.10;;;-147.20;100.00;58430.41;5093098;28;20044;-8
2022/08/24 02:04:38;;;;;;;1.30;1.15;;;27.50;42.10;;;-147.20;100.00;58430.41;5094325;28;20485;-8
2022/08/24 02:07:04;;;;;;;2.25;1.02;;;27.50;42.10;;;-147.20;100.00;58430.41;5094332;28;20110;-8
2022/08/24 02:09:31;;;;;;;1.20;1.02;;;27.50;42.10;;;-147.20;100.00;58430.41;5094157;28;20482;-8
2022/08/24 02:11:58;;;;;;;1.33;1.02;;;27.50;42.20;;;-147.20;100.00;58430.41;5092729;28;20530;-8
2022/08/24 02:14:24;;;;;;;1.55;1.10;;;27.50;42.20;;;-147.20;100.00;58430.41;5111074;28;20051;-8
2022/08/24 02:16:50;;;;;;;1.10;1.00;;;27.50;42.20;;;-147.20;100.00;58430.41;5112646;28;20044;-8
2022/08/24 02:19:26;;;;;;;1.77;1.13;;;27.50;42.20;;;-147.20;100.00;58430.41;5094157;28;20107;-8
2022/08/24 02:21:52;;;;;;;0.93;0.93;;;27.50;42.70;;;-147.20;100.00;58430.41;5094122;28;20526;-8
2022/08/24 02:24:18;;;;;;;1.58;1.13;;;27.50;42.20;;;-147.20;100.00;58430.41;5094101;28;20083;-8
2022/08/24 02:26:44;;;;;;;1.17;1.08;;;27.50;42.20;;;-147.20;100.00;58430.41;5092476;28;20150;-8
2022/08/24 02:29:10;;;;;;;1.15;1.05;;;27.50;42.30;;;-147.20;100.00;58430.41;5093709;28;20400;-8
2022/08/24 02:31:36;;;;;;;1.45;1.00;;;27.50;42.30;;;-147.20;100.00;58430.41;5094301;28;20075;-8
2022/08/24 02:34:03;;;;;;;3.78;1.20;;;27.50;42.30;;;-147.20;100.00;58430.41;5094395;28;20097;-8
2022/08/24 02:36:30;;;;;;;0.80;0.80;;;27.50;42.30;;;-147.20;100.00;58430.41;5092243;28;20082;-9
2022/08/24 02:38:57;;;;;;;1.20;1.10;;;27.50;42.30;;;-147.20;100.00;58430.41;5094218;28;20089;-10
2022/08/24 02:41:24;;;;;;;1.55;1.00;;;27.50;42.30;;;-147.20;100.00;58430.41;5112195;28;20108;-10
2022/08/24 02:43:52;;;;;;;1.23;1.05;;;27.40;42.30;;;-147.20;100.00;58430.41;5112285;28;20039;-10
2022/08/24 02:46:24;;;;;;;1.45;1.05;;;27.50;42.30;;;-147.20;100.00;58430.41;5075762;28;20072;-9
2022/08/24 02:48:51;;;;;;;1.65;1.15;;;27.40;42.30;;;-147.20;100.00;58430.41;5093764;28;20055;-10
2022/08/24 02:51:23;;;;;;;0.95;0.95;;;27.50;42.40;;;-147.20;100.00;58430.41;5094096;28;20068;-10
2022/08/24 02:53:49;;;;;;;2.50;1.00;;;27.50;42.40;;;-147.20;100.00;58430.41;5097858;28;20056;-10
2022/08/24 02:56:17;;;;;;;1.35;1.20;;;27.40;42.30;;;-147.20;100.00;58430.41;5095252;28;20142;-10
2022/08/24 02:58:47;;;;;;;1.10;1.00;;;27.50;42.40;;;-147.20;100.00;58430.41;5097016;28;20047;-10
2022/08/24 03:01:14;;;;;;;1.97;1.07;;;27.50;42.40;;;-147.20;100.00;58430.41;5115661;28;20051;-10
2022/08/24 03:03:40;;;;;;;0.98;0.90;;;27.50;42.40;;;-147.20;100.00;58430.41;5097172;28;20047;-10
2022/08/24 03:06:07;;;;;;;2.17;1.00;;;27.50;42.40;;;-147.20;100.00;58430.41;5097090;28;20539;-10
2022/08/24 03:08:35;;;;;;;1.30;0.93;;;27.50;42.40;;;-147.20;100.00;58430.41;5115323;28;20040;-10
2022/08/24 03:11:01;;;;;;;1.17;0.82;;;27.50;42.40;;;-147.20;100.00;58430.41;5095005;28;20063;-10
2022/08/24 03:13:29;;;;;;;1.60;1.20;;;27.40;42.40;;;-147.20;100.00;58430.41;5115391;28;20066;-10
2022/08/24 03:15:56;;;;;;;0.80;0.80;;;27.50;42.40;;;-147.20;100.00;58430.41;5115388;28;20048;-9
2022/08/24 03:18:26;;;;;;;1.55;1.33;;;27.40;42.40;;;-147.20;100.00;58430.41;5095658;28;20464;-10
2022/08/24 03:20:54;;;;;;;1.30;1.20;;;27.40;42.40;;;-147.20;100.00;58430.41;5097205;28;20058;-10
2022/08/24 03:23:22;;;;;;;1.63;0.90;;;27.50;42.50;;;-147.20;100.00;58430.41;5096796;28;20052;-9
2022/08/24 03:25:50;;;;;;;1.10;1.00;;;27.40;42.50;;;-147.20;100.00;58430.41;5096758;28;20450;-10
2022/08/24 03:28:18;;;;;;;1.33;1.23;;;27.40;42.50;;;-147.20;100.00;58430.41;5096677;28;20048;-10
2022/08/24 03:30:44;;;;;;;1.27;1.10;;;27.40;42.50;;;-147.20;100.00;58430.41;5096600;28;20405;-10
2022/08/24 03:33:10;;;;;;;1.55;0.98;;;27.40;43.00;;;-147.20;100.00;58430.41;5096577;28;20047;-10
2022/08/24 03:35:36;;;;;;;1.45;1.00;;;27.40;42.50;;;-147.20;100.00;58430.41;5114945;28;20493;-10
2022/08/24 03:38:03;;;;;;;1.02;0.93;;;27.40;42.50;;;-147.20;100.00;58430.41;5096568;28;20055;-10
2022/08/24 03:40:31;;;;;;;1.40;1.17;;;27.40;42.50;;;-147.20;100.00;58430.41;5096491;28;20041;-10
2022/08/24 03:42:59;;;;;;;1.42;1.05;;;27.40;42.50;;;-147.20;100.00;58430.41;5114884;28;20101;-10
2022/08/24 03:45:27;;;;;;;1.05;0.95;;;27.40;42.50;;;-147.20;100.00;58430.41;5096355;28;20051;-10
2022/08/24 03:47:54;;;;;;;1.92;1.00;;;27.40;42.60;;;-147.20;100.00;58430.41;5096295;28;20040;-10
2022/08/24 03:50:23;;;;;;;1.52;1.42;;;27.40;42.60;;;-147.20;100.00;58430.41;5094381;28;20048;-10
2022/08/24 03:52:50;;;;;;;1.20;0.88;;;27.40;42.60;;;-147.20;100.00;58430.41;5096562;28;20078;-10
2022/08/24 03:55:18;;;;;;;1.10;0.90;;;27.40;42.60;;;-147.20;100.00;58430.41;5113065;28;20047;-10
2022/08/24 03:57:44;;;;;;;1.98;1.30;;;27.40;42.60;;;-147.20;100.00;58430.41;5113143;28;20044;-10
2022/08/24 04:00:11;;;;;;;1.10;0.95;;;27.40;42.60;;;-147.20;100.00;58430.41;5096482;28;20077;-10
2022/08/24 04:02:40;;;;;;;1.25;1.15;;;27.40;42.60;;;-147.20;100.00;58430.41;5113136;28;20051;-10
2022/08/24 04:05:08;;;;;;;1.25;0.93;;;27.40;42.60;;;-147.20;100.00;58430.41;5096169;28;20044;-9
2022/08/24 04:07:35;;;;;;;1.08;0.90;;;27.40;42.70;;;-147.20;100.00;58430.41;5078699;28;20063;-10
2022/08/24 04:10:01;;;;;;;0.75;0.75;;;27.40;42.60;;;-147.20;100.00;58430.41;5095145;28;20552;-10
2022/08/24 04:12:27;;;;;;;1.50;1.33;;;27.40;42.70;;;-147.20;100.00;58430.41;5094042;28;20405;-10
2022/08/24 04:14:56;;;;;;;1.70;1.20;;;27.40;42.70;;;-147.20;100.00;58430.41;5095432;28;20566;-10
2022/08/24 04:17:24;;;;;;;1.00;0.90;;;27.40;42.80;;;-147.20;100.00;58430.41;5080398;28;20052;-10
2022/08/24 04:19:58;;;;;;;1.80;1.10;;;27.40;42.90;;;-147.20;100.00;58430.41;5060639;28;20106;-10
2022/08/24 04:22:34;;;;;;;1.65;0.93;;;27.40;42.90;;;-147.20;100.00;58430.41;5111399;28;20044;-10
2022/08/24 04:25:00;;;;;;;1.63;1.20;;;27.40;43.00;;;-147.20;100.00;58430.41;5079634;28;20065;-10
2022/08/24 04:27:27;;;;;;;1.90;1.10;;;27.40;43.10;;;-147.20;100.00;58430.41;5094525;28;20052;-10
2022/08/24 04:29:55;;;;;;;2.10;1.35;;;27.40;43.10;;;-147.20;100.00;58430.41;5095682;28;20055;-10
2022/08/24 04:32:22;;;;;;;1.65;1.05;;;27.40;43.10;;;-147.20;100.00;58430.41;5095776;28;20050;-10
2022/08/24 04:34:48;;;;;;;2.80;1.20;;;27.40;43.10;;;-147.20;100.00;58430.41;5095623;28;20047;-10
2022/08/24 04:37:16;;;;;;;1.33;0.93;;;27.50;43.20;;;-147.20;100.00;58430.41;5095920;28;20397;-10
2022/08/24 04:39:42;;;;;;;1.23;1.10;;;27.50;43.20;;;-147.20;100.00;58430.41;5095635;28;20101;-10
2022/08/24 04:42:16;;;;;;;2.35;1.20;;;27.60;43.20;;;-147.20;100.00;58430.41;5095926;28;20089;-10
2022/08/24 04:44:43;;;;;;;2.75;1.10;;;27.50;43.10;;;-147.20;100.00;58430.41;5094838;28;20048;-10
2022/08/24 04:47:09;;;;;;;2.65;1.30;;;27.60;43.10;;;-147.20;100.00;58430.41;5094250;28;20513;-10
2022/08/24 04:49:37;;;;;;;1.10;1.00;;;27.60;43.00;;;-147.20;100.00;58430.41;5095217;28;20474;-10
2022/08/24 04:52:06;;;;;;;2.88;1.45;;;27.70;43.00;;;-147.20;100.00;58430.41;5095654;28;20040;-10
2022/08/24 04:54:33;;;;;;;2.70;1.50;;;27.70;43.00;;;-147.20;100.00;58430.41;5095587;28;20092;-10
2022/08/24 04:57:07;;;;;;;1.92;1.20;;;27.70;43.00;;;-147.20;100.00;58430.41;5095070;28;20047;-10
2022/08/24 04:59:33;;;;;;;1.17;1.08;;;27.80;42.90;;;-147.20;100.00;58430.41;5114158;28;20051;-10
2022/08/24 05:01:58;;;;;;;2.20;1.30;;;27.80;42.90;;;-147.20;100.00;58430.41;5095276;28;20497;-10
2022/08/24 05:04:24;;;;;;;2.20;1.40;;;27.90;42.90;;;-147.20;100.00;58430.41;5095446;28;20077;-10
2022/08/24 05:06:50;;;;;;;2.25;1.00;;;27.90;42.80;;;-147.20;100.00;58430.41;5094975;28;20063;-10
2022/08/24 05:09:18;;;;;;;1.52;1.25;;;27.90;42.80;;;-147.20;100.00;58430.41;5077258;28;20493;-10
2022/08/24 05:11:44;;;;;;;2.72;1.48;;;27.90;42.80;;;-147.20;100.00;58430.41;5113447;28;20054;-11
2022/08/24 05:14:10;;;;;;;2.40;1.20;;;28.00;42.80;;;-147.20;100.00;58430.41;5094994;28;20051;-10
2022/08/24 05:16:36;;;;;;;1.45;1.23;;;28.00;42.80;;;-147.20;100.00;58430.41;5111945;28;20047;-10
2022/08/24 05:19:05;;;;;;;1.55;1.20;;;28.10;42.90;;;-147.20;100.00;58430.41;5093739;28;20047;-10
2022/08/24 05:21:32;;;;;;;1.55;0.93;;;28.10;42.80;;;-147.20;100.00;58430.41;5093646;28;20044;-10
2022/08/24 05:23:58;;;;;;;2.22;1.20;;;28.10;42.80;;;-147.20;100.00;58430.41;5094909;28;20136;-10
2022/08/24 05:26:30;;;;;;;5.90;1.83;;;28.20;42.80;;;-147.20;100.00;58430.41;5095352;28;20044;-10
2022/08/24 05:28:59;;;;;;;2.45;1.25;;;28.20;42.80;;;-147.20;100.00;58430.41;5094800;28;20489;-10
2022/08/24 05:31:31;;;;;;;2.38;1.17;;;28.20;42.70;;;-147.20;100.00;58430.41;5095534;28;20047;-10
2022/08/24 05:34:01;;;;;;;1.95;1.40;;;28.30;43.30;;;-147.20;100.00;58430.41;5095215;28;20043;-10
2022/08/24 05:36:36;;;;;;;1.77;1.20;;;28.40;42.70;;;-147.20;100.00;58430.41;5094742;28;20051;-10
2022/08/24 05:39:08;;;;;;;3.45;1.27;;;28.40;42.70;;;-147.20;100.00;58430.41;5095359;28;20047;-10
2022/08/24 05:41:35;;;;;;;1.90;1.10;;;28.50;42.70;;;-147.20;100.00;58430.41;5092108;28;20047;-10
2022/08/24 05:44:09;;;;;;;1.67;1.45;;;28.50;42.60;;;-147.20;100.00;58430.41;5094456;28;20048;-10
2022/08/24 05:46:35;;;;;;;2.00;1.40;;;28.50;42.40;;;-147.20;100.00;58430.41;5112896;28;20047;-10
2022/08/24 05:49:01;;;;;;;1.48;1.02;;;28.60;42.40;;;-147.20;100.00;58430.41;5112968;28;20051;-10
2022/08/24 05:51:32;;;;;;;1.98;1.50;;;28.60;42.30;;;-147.20;100.00;58430.41;5075992;28;20105;-10
2022/08/24 05:54:03;;;;;;;1.50;1.17;;;28.70;42.30;;;-147.20;100.00;58430.41;5092794;28;20048;-10
2022/08/24 05:56:38;;;;;;;2.50;1.00;;;28.70;42.30;;;-147.20;100.00;58430.41;5095116;28;20465;-10
2022/08/24 05:59:04;;;;;;;1.40;1.30;;;28.80;42.20;;;-147.20;100.00;58430.41;5094908;28;20096;-10
2022/08/24 06:01:30;;;;;;;2.28;1.50;;;28.80;42.20;;;-147.20;100.00;58430.41;5112599;28;20043;-10
2022/08/24 06:03:57;;;;;;;2.55;1.52;;;28.80;42.10;;;-147.20;100.00;58430.41;5092978;28;20555;-10
2022/08/24 06:06:25;;;;;;;2.40;1.30;;;28.90;42.10;;;-147.20;100.00;58430.41;5094265;28;20043;-10
2022/08/24 06:08:54;;;;;;;1.30;1.20;;;28.90;42.00;;;-147.20;100.00;58430.41;5092711;28;20052;-10
2022/08/24 06:11:31;;;;;;;1.52;1.27;;;29.00;42.10;;;-147.20;100.00;58430.41;5077800;28;20567;-10
2022/08/24 06:14:03;;;;;;;1.50;1.10;;;29.00;42.00;;;-147.20;100.00;58430.41;5094687;28;20044;-10
2022/08/24 06:16:35;;;;;;;1.25;1.15;;;29.10;42.00;;;-147.20;100.00;58430.41;5094433;28;20430;-10
2022/08/24 06:19:01;;;;;;;2.20;1.15;;;29.10;42.40;;;-147.20;100.00;58430.41;5093633;28;20040;-10
2022/08/24 06:21:28;;;;;;;3.03;1.23;;;29.10;41.90;;;-147.20;100.00;58430.41;5094603;28;20039;-10
2022/08/24 06:23:55;;;;;;;1.33;1.20;;;29.20;41.90;;;-147.20;100.00;58430.41;5094163;28;20047;-10
2022/08/24 06:29:07;;;;;;;1.88;1.08;;;29.30;41.80;;;-147.20;100.00;58430.41;5112128;28;20067;-10
2022/08/24 06:31:42;;;;;;;1.10;1.00;;;29.30;41.70;;;-147.20;100.00;58430.41;5096281;28;20053;-10
2022/08/24 06:34:12;;;;;;;1.63;1.10;;;29.30;41.70;;;-147.20;100.00;58430.41;5080892;28;20484;-10
2022/08/24 06:36:38;;;;;;;2.08;1.30;;;29.40;41.70;;;-147.20;100.00;58430.41;5097488;28;20051;-10
2022/08/24 06:39:05;;;;;;;4.95;1.48;;;29.40;41.50;;;-147.20;100.00;58430.41;5082469;28;20036;-10
2022/08/24 06:41:31;;;;;;;1.80;1.10;;;29.40;41.40;;;-147.20;100.00;58430.41;5097831;28;20056;-10
2022/08/24 06:43:58;;;;;;;1.40;1.30;;;29.50;41.40;;;-147.20;100.00;58430.41;5115815;28;20046;-10
2022/08/24 06:46:27;;;;;;;3.08;1.30;;;29.50;41.40;;;-147.20;100.00;58430.41;5097312;28;20138;-10
2022/08/24 06:48:55;;;;;;;1.80;1.20;;;29.60;41.40;;;-147.20;100.00;58430.41;5095809;28;20048;-10
2022/08/24 06:51:22;;;;;;;2.53;1.20;;;29.60;41.30;;;-147.20;100.00;58430.41;5097446;28;20130;-10
2022/08/24 06:53:49;;;;;;;2.35;1.10;;;29.60;41.20;;;-147.20;100.00;58430.41;5114298;28;20063;-10
2022/08/24 06:56:16;;;;;;;4.10;1.40;;;29.70;41.20;;;-147.20;100.00;58430.41;5097087;28;20070;-10
2022/08/24 06:58:43;;;;;;;1.83;1.33;;;29.70;41.20;;;-147.20;100.00;58430.41;5097044;28;20044;-10
2022/08/24 07:01:18;;;;;;;2.50;1.30;;;29.80;41.20;;;-147.20;100.00;58430.41;5097454;28;20040;-10
2022/08/24 07:03:45;;;;;;;2.42;1.50;;;29.80;41.20;;;-147.20;100.00;58430.41;5097671;28;20385;-10
2022/08/24 07:06:35;;;;;;;2.97;1.40;;;29.80;41.20;;;-147.20;100.00;58430.41;5032643;28;20462;-10
2022/08/24 07:09:01;;;;;;;4.13;1.30;;;29.80;41.00;;;-147.20;100.00;58430.41;5087359;28;20052;-10
2022/08/24 07:11:29;;;;;;;2.30;1.33;;;29.90;41.10;;;-147.20;100.00;58430.41;5095715;28;20048;-10
2022/08/24 07:13:55;;;;;;;1.65;1.33;;;29.90;41.10;;;-147.20;100.00;58430.41;5097031;28;20051;-10
2022/08/24 07:16:22;;;;;;;2.22;1.40;;;29.90;41.00;;;-147.20;100.00;58430.41;5096647;28;20047;-10
2022/08/24 07:18:52;;;;;;;2.35;1.60;;;30.00;41.00;;;-147.20;100.00;58430.41;5096580;28;20481;-10
2022/08/24 07:21:20;;;;;;;1.88;1.20;;;30.00;41.00;;;-147.20;100.00;58430.41;5096760;28;20957;-10
2022/08/24 07:23:48;;;;;;;1.65;1.25;;;30.00;41.00;;;-147.20;100.00;58430.41;5096735;28;20097;-10
2022/08/24 07:26:20;;;;;;;2.97;1.20;;;30.00;40.90;;;-147.20;100.00;58430.41;5096761;28;20051;-10
2022/08/24 07:28:46;;;;;;;1.60;1.25;;;30.00;41.00;;;-147.20;100.00;58430.41;5097008;28;20051;-10
2022/08/24 07:31:12;;;;;;;1.40;1.30;;;30.00;40.90;;;-147.20;100.00;58430.41;5111875;28;20450;-10
2022/08/24 07:33:45;;;;;;;2.13;1.38;;;30.00;40.90;;;-147.20;100.00;58430.41;5080873;28;20409;-10
2022/08/24 07:36:13;;;;;;;1.63;1.42;;;30.00;40.90;;;-147.20;100.00;58430.41;5096666;28;20065;-10
2022/08/24 07:38:39;;;;;;;3.08;1.02;;;30.00;41.50;;;-147.20;100.00;58430.41;5094666;28;20139;-11
2022/08/24 07:41:06;;;;;;;2.15;1.33;;;30.00;41.00;;;-147.20;100.00;58430.41;5097072;28;20044;-10
2022/08/24 07:43:33;;;;;;;2.15;1.15;;;30.00;41.00;;;-147.20;100.00;58430.41;5095626;28;20056;-10
2022/08/24 07:45:59;;;;;;;3.45;1.60;;;30.00;41.10;;;-147.20;100.00;58430.41;5078438;28;20380;-10
2022/08/24 07:48:27;;;;;;;4.78;1.67;;;29.90;41.60;;;-147.20;100.00;58430.41;5096588;28;20040;-11
2022/08/24 07:50:55;;;;;;;3.38;1.60;;;29.90;41.60;;;-147.20;100.00;58430.41;5096202;28;20048;-10
2022/08/24 07:53:20;;;;;;;4.20;1.65;;;29.90;41.70;;;-147.20;100.00;58430.41;5079030;28;20501;-11
2022/08/24 07:55:54;;;;;;;2.22;1.40;;;29.90;41.70;;;-147.20;100.00;58430.41;5094837;28;20078;-10
2022/08/24 07:58:21;;;;;;;4.30;1.40;;;29.90;42.20;;;-147.20;100.00;58430.41;5094359;28;20140;-11
2022/08/24 08:00:47;;;;;;;2.38;1.40;;;29.90;42.60;;;-147.20;100.00;58430.41;5096086;28;20404;-11
2022/08/24 08:03:14;;;;;;;4.18;1.48;;;29.90;41.70;;;-147.20;100.00;58430.41;5096705;28;20044;-11
2022/08/24 08:05:40;;;;;;;2.55;1.55;;;30.00;41.90;;;-147.20;100.00;58430.41;5095530;28;20055;-10
2022/08/24 08:08:06;;;;;;;1.65;1.20;;;30.00;41.70;;;-147.20;100.00;58430.41;5114464;28;20073;-11
2022/08/24 08:10:36;;;;;;;2.65;1.30;;;30.00;41.70;;;-147.20;100.00;58430.41;5096558;28;20052;-11
2022/08/24 08:13:05;;;;;;;2.23;1.43;;;30.00;41.80;;;-147.20;100.00;58430.41;5096498;28;20052;-11
2022/08/24 08:15:32;;;;;;;3.13;1.50;;;30.00;41.70;;;-147.20;100.00;58430.41;5096218;28;20293;-11
2022/08/24 08:18:04;;;;;;;3.47;1.63;;;30.00;41.70;;;-147.20;100.00;58430.41;5096659;28;20039;-11
2022/08/24 08:20:31;;;;;;;2.90;1.35;;;30.00;41.70;;;-147.20;100.00;58430.41;5095872;28;20051;-11
2022/08/24 08:26:02;;;;;;;1.25;1.15;;;29.90;41.60;;;-147.20;100.00;58430.41;5113591;28;20051;-11
2022/08/24 08:28:56;;;;;;;2.20;1.25;;;29.90;41.70;;;-147.20;100.00;58430.41;5095888;28;20134;-11
2022/08/24 08:31:21;;;;;;;2.30;1.23;;;29.90;42.20;;;-147.20;100.00;58430.41;5095756;28;20039;-11
2022/08/24 08:33:47;;;;;;;1.83;1.38;;;29.90;41.60;;;-147.20;100.00;58430.41;5093786;28;20405;-11
2022/08/24 08:36:17;;;;;;;2.22;1.23;;;29.80;41.60;;;-147.20;100.00;58430.41;5095118;28;20050;-11
2022/08/24 08:38:48;;;;;;;1.60;1.30;;;29.80;41.60;;;-147.20;100.00;58430.41;5093575;28;20052;-11
2022/08/24 08:41:17;;;;;;;1.98;1.27;;;29.80;41.70;;;-147.20;100.00;58430.41;5095797;28;20043;-8
2022/08/24 08:44:03;;;;;;;4.47;1.40;;;29.80;41.70;;;-147.20;100.00;58430.41;5095439;28;20105;-8
2022/08/24 08:46:53;;;;;;;5.40;1.50;;;29.70;41.70;;;-147.20;100.00;58430.41;5061686;28;20047;-8
2022/08/24 08:49:54;;;;;;;3.20;1.33;;;29.60;41.70;;;-147.20;100.00;58430.41;5078003;28;20051;-8
2022/08/24 08:52:35;;;;;;;1.60;1.33;;;29.60;41.80;;;-147.20;100.00;58430.41;5076937;28;20138;-8
2022/08/24 08:55:23;;;;;;;1.85;1.38;;;29.60;41.80;;;-147.20;100.00;58430.41;5113558;28;20139;-8
2022/08/24 08:58:33;;;;;;;2.35;1.42;;;29.50;41.80;;;-147.20;100.00;58430.41;5113565;28;20047;-8
2022/08/24 09:01:28;;;;;;;1.45;1.08;;;29.60;41.90;;;-147.20;100.00;58430.41;5078382;28;20051;-9
2022/08/24 09:04:27;;;;;;;1.25;1.15;;;29.50;42.50;;;-147.20;100.00;58430.41;5093578;28;20085;-9
2022/08/24 09:07:47;;;;;;;1.73;1.10;;;29.50;41.90;;;-147.20;100.00;58430.41;5088433;28;20899;-9
2022/08/24 09:10:55;;;;;;;2.20;1.55;;;29.50;42.00;;;-147.20;100.00;58430.41;5078334;28;20521;-9
2022/08/24 09:14:10;;;;;;;3.08;1.02;;;29.40;42.00;;;-147.20;100.00;58430.41;5078493;28;20047;-9
2022/08/24 09:17:19;;;;;;;2.92;1.27;;;29.40;42.00;;;-147.20;100.00;58430.41;5110610;28;20075;-9
2022/08/24 09:20:06;;;;;;;2.13;1.23;;;29.40;42.00;;;-147.20;100.00;58430.41;5077984;28;20047;-9
2022/08/24 09:22:40;;;;;;;1.67;1.33;;;29.30;42.00;;;-147.20;100.00;58430.41;5094075;28;20379;-9
2022/08/24 09:25:43;;;;;;;2.50;1.25;;;29.30;42.00;;;-147.20;100.00;58430.41;5095157;28;20059;-9
2022/08/24 09:28:39;;;;;;;1.80;1.23;;;29.30;42.20;;;-147.20;100.00;58430.41;5037390;28;20058;-10
2022/08/24 09:31:41;;;;;;;2.05;1.52;;;29.30;42.20;;;-147.20;100.00;58430.41;5094876;28;20048;-9
2022/08/24 09:34:21;;;;;;;1.90;1.10;;;29.30;42.20;;;-147.20;100.00;58430.41;5095137;28;20466;-9
2022/08/24 09:37:15;;;;;;;1.58;1.20;;;29.20;42.20;;;-147.20;100.00;58430.41;5094131;28;20440;-9
2022/08/24 09:40:16;;;;;;;1.80;1.38;;;29.20;42.10;;;-147.20;100.00;58430.41;5112983;28;20054;-9
2022/08/24 09:42:45;;;;;;;;;;;29.30;42.20;;;-147.20;100.00;58430.41;5113731;28;20055;-9
2022/08/24 09:45:32;;;;;;;2.92;1.13;;;29.20;42.20;;;-147.20;100.00;58430.41;5112874;28;19915;-9
2022/08/24 09:48:25;;;;;;;1.85;1.52;;;29.20;42.20;;;-147.20;100.00;58430.41;5112866;28;20075;-9
2022/08/24 09:51:28;;;;;;;2.08;1.60;;;29.20;42.30;;;-147.20;100.00;58430.41;5112740;28;20134;-9
2022/08/24 09:54:32;;;;;;;1.65;1.17;;;29.20;42.30;;;-147.20;100.00;58430.41;5112730;28;20039;-9
2022/08/24 09:58:05;;;;;;;1.55;1.20;;;29.20;42.30;;;-147.20;100.00;58430.41;5094205;28;20405;-9
2022/08/24 10:00:45;;;;;;;2.30;1.42;;;29.20;42.30;;;-147.20;100.00;58430.41;5104703;28;20047;-9
2022/08/24 10:04:04;;;;;;;1.55;1.40;;;29.20;42.30;;;-147.20;100.00;58430.41;5116815;28;20055;-9
2022/08/24 10:06:58;;;;;;;1.35;1.25;;;29.20;42.30;;;-147.20;100.00;58430.41;5116257;28;20046;-9
2022/08/24 10:09:55;;;;;;;1.67;1.50;;;29.10;42.30;;;-147.20;100.00;58430.41;5116301;28;20052;-9
2022/08/24 10:12:49;;;;;;;1.92;1.33;;;29.10;42.30;;;-147.20;100.00;58430.41;5116067;28;20044;-9
2022/08/24 10:15:46;;;;;;;2.63;1.30;;;29.10;42.40;;;-147.20;100.00;58430.41;5097445;28;20051;-9
2022/08/24 10:18:21;;;;;;;1.20;1.10;;;29.10;42.30;;;-147.20;100.00;58430.41;5097435;28;20382;-9
2022/08/24 10:21:20;;;;;;;1.77;1.10;;;29.10;42.30;;;-147.20;100.00;58430.41;5116099;28;20542;-9
2022/08/24 10:24:14;;;;;;;3.17;1.40;;;29.10;42.40;;;-147.20;100.00;58430.41;5097881;28;20054;-9
2022/08/24 10:27:12;;;;;;;1.27;1.10;;;29.10;42.30;;;-147.20;100.00;58430.41;5116030;28;20051;-9
2022/08/24 10:30:18;;;;;;;1.52;1.20;;;29.10;42.40;;;-147.20;100.00;58430.41;5115736;28;20078;-9
2022/08/24 10:33:14;;;;;;;1.40;1.30;;;29.10;42.40;;;-147.20;100.00;58430.41;5097756;28;20039;-9
2022/08/24 10:35:54;;;;;;;1.88;1.27;;;29.10;42.40;;;-147.20;100.00;58430.41;5097389;28;20400;-9